Time;durP1;ratioP1;P1;durP2;ratioP2;P2;SDS_P1;SDS_P2;PMS_P1;PMS_P2;Temp;Humidity;BMP_temperature;BMP_pressure;BME280_temperature;BME280_humidity;BME280_pressure;Samples;Min_cycle;Max_cycle;Signal;HPM_P1;HPM_P2
2021/04/06 00:00:55;;;;;;;4.90;3.13;;;;;;;;;;5107170;28;20205;-61
2021/04/06 00:03:25;;;;;;;4.55;3.30;;;;;;;;;;5106392;28;20230;-61
2021/04/06 00:05:53;;;;;;;6.18;3.25;;;;;;;;;;5101023;28;20601;-62
2021/04/06 00:08:20;;;;;;;5.93;3.35;;;;;;;;;;5094549;28;20200;-62
2021/04/06 00:10:48;;;;;;;3.80;3.35;;;;;;;;;;5098627;28;20205;-62
2021/04/06 00:13:15;;;;;;;3.80;3.40;;;;;;;;;;5097444;28;20279;-61
2021/04/06 00:15:44;;;;;;;3.95;3.40;;;;;;;;;;5097402;28;20225;-61
2021/04/06 00:18:12;;;;;;;3.40;3.10;;;;;;;;;;5099370;28;20627;-60
2021/04/06 00:20:40;;;;;;;5.85;3.80;;;;;;;;;;5098246;28;20204;-61
2021/04/06 00:23:09;;;;;;;3.95;3.65;;;;;;;;;;5098653;28;20254;-62
2021/04/06 00:25:37;;;;;;;4.90;3.75;;;;;;;;;;5101166;28;20230;-61
2021/04/06 00:28:04;;;;;;;5.75;4.03;;;;;;;;;;5101504;28;20215;-60
2021/04/06 00:30:32;;;;;;;3.58;3.28;;;;;;;;;;5101899;28;20208;-61
2021/04/06 00:33:04;;;;;;;4.45;3.75;;;;;;;;;;5100714;28;20536;-60
2021/04/06 00:35:31;;;;;;;4.18;3.78;;;;;;;;;;5101186;28;20223;-61
2021/04/06 00:37:59;;;;;;;5.75;4.35;;;;;;;;;;5098171;28;20242;-62
2021/04/06 00:40:27;;;;;;;4.82;4.10;;;;;;;;;;5098232;28;20273;-61
2021/04/06 00:42:59;;;;;;;4.30;3.90;;;;;;;;;;5097978;28;20207;-62
2021/04/06 00:45:27;;;;;;;5.00;4.03;;;;;;;;;;5097591;28;20251;-62
2021/04/06 00:48:00;;;;;;;4.32;3.92;;;;;;;;;;5097104;28;20213;-61
2021/04/06 00:50:31;;;;;;;5.78;3.50;;;;;;;;;;5097779;28;20192;-60
2021/04/06 00:52:58;;;;;;;5.00;4.50;;;;;;;;;;5098159;28;20711;-59
2021/04/06 00:55:25;;;;;;;6.35;4.20;;;;;;;;;;5097862;28;20726;-62
2021/04/06 00:57:53;;;;;;;4.68;4.00;;;;;;;;;;5099023;28;20204;-60
2021/04/06 01:00:21;;;;;;;7.63;5.55;;;;;;;;;;5099423;28;20201;-61
2021/04/06 01:02:58;;;;;;;5.97;4.10;;;;;;;;;;5099114;28;20248;-60
2021/04/06 01:05:26;;;;;;;3.80;3.50;;;;;;;;;;5098176;28;20245;-61
2021/04/06 01:07:53;;;;;;;4.05;3.65;;;;;;;;;;5097976;28;20224;-61
2021/04/06 01:10:21;;;;;;;4.72;3.70;;;;;;;;;;5098248;28;20200;-61
2021/04/06 01:12:47;;;;;;;4.28;2.95;;;;;;;;;;5098323;28;20578;-60
2021/04/06 01:15:14;;;;;;;3.90;3.60;;;;;;;;;;5098435;28;20224;-62
2021/04/06 01:17:42;;;;;;;4.70;3.47;;;;;;;;;;5098075;28;20209;-61
2021/04/06 01:20:09;;;;;;;4.00;3.70;;;;;;;;;;5097416;28;20204;-60
2021/04/06 01:22:37;;;;;;;6.32;4.15;;;;;;;;;;5097727;28;20200;-61
2021/04/06 01:25:06;;;;;;;4.95;4.38;;;;;;;;;;5097839;28;20220;-61
2021/04/06 01:27:33;;;;;;;7.93;5.78;;;;;;;;;;5098555;28;20208;-61
2021/04/06 01:30:00;;;;;;;5.65;4.95;;;;;;;;;;5097772;28;20207;-61
2021/04/06 01:32:28;;;;;;;9.00;6.28;;;;;;;;;;5097199;28;20220;-60
2021/04/06 01:34:55;;;;;;;5.28;3.40;;;;;;;;;;5096689;28;20220;-61
2021/04/06 01:37:22;;;;;;;3.80;2.85;;;;;;;;;;5097461;28;20249;-61
2021/04/06 01:39:51;;;;;;;4.35;2.30;;;;;;;;;;5097203;28;20253;-60
2021/04/06 01:42:20;;;;;;;1.90;1.65;;;;;;;;;;5097075;28;20229;-61
2021/04/06 01:44:49;;;;;;;1.92;1.55;;;;;;;;;;5096879;28;20727;-60
2021/04/06 01:47:16;;;;;;;1.38;1.02;;;;;;;;;;5097086;28;20261;-60
2021/04/06 01:49:44;;;;;;;3.63;1.20;;;;;;;;;;5096538;28;20256;-62
2021/04/06 01:52:11;;;;;;;1.25;1.15;;;;;;;;;;5096403;28;20568;-60
2021/04/06 01:54:40;;;;;;;0.93;0.82;;;;;;;;;;5096592;28;20315;-61
2021/04/06 01:57:12;;;;;;;1.10;0.98;;;;;;;;;;5096353;28;20200;-61
2021/04/06 01:59:43;;;;;;;2.17;0.90;;;;;;;;;;5096029;28;20212;-62
2021/04/06 02:02:10;;;;;;;2.20;1.10;;;;;;;;;;5095386;28;20277;-61
2021/04/06 02:04:39;;;;;;;2.35;0.85;;;;;;;;;;5095421;28;20222;-61
2021/04/06 02:07:08;;;;;;;1.30;0.80;;;;;;;;;;5095273;28;20219;-60
2021/04/06 02:09:34;;;;;;;2.30;1.08;;;;;;;;;;5095496;28;20227;-60
2021/04/06 02:12:01;;;;;;;1.55;0.75;;;;;;;;;;5095959;28;20211;-61
2021/04/06 02:14:30;;;;;;;2.95;1.00;;;;;;;;;;5095535;28;20220;-60
2021/04/06 02:16:58;;;;;;;2.67;1.00;;;;;;;;;;5095469;28;20208;-62
2021/04/06 02:19:26;;;;;;;1.30;1.00;;;;;;;;;;5095012;28;20196;-61
2021/04/06 02:21:55;;;;;;;1.88;1.42;;;;;;;;;;5095104;28;20204;-62
2021/04/06 02:24:25;;;;;;;2.13;1.10;;;;;;;;;;5094931;28;20219;-61
2021/04/06 02:26:57;;;;;;;1.10;1.00;;;;;;;;;;5094936;28;20757;-61
2021/04/06 02:29:24;;;;;;;4.13;1.70;;;;;;;;;;5094890;28;20675;-62
2021/04/06 02:31:51;;;;;;;3.13;2.13;;;;;;;;;;5094874;28;20588;-61
2021/04/06 02:34:19;;;;;;;4.55;2.25;;;;;;;;;;5095396;28;20587;-62
2021/04/06 02:36:46;;;;;;;4.20;2.05;;;;;;;;;;5095277;28;20204;-61
2021/04/06 02:39:13;;;;;;;3.85;2.92;;;;;;;;;;5095294;28;20207;-62
2021/04/06 02:41:40;;;;;;;4.88;3.33;;;;;;;;;;5095035;28;20254;-61
2021/04/06 02:44:07;;;;;;;4.15;3.05;;;;;;;;;;5094851;28;20196;-60
2021/04/06 02:46:35;;;;;;;3.33;3.03;;;;;;;;;;5094394;28;20246;-61
2021/04/06 02:49:02;;;;;;;6.43;4.25;;;;;;;;;;5094637;28;20220;-61
2021/04/06 02:51:30;;;;;;;4.00;3.00;;;;;;;;;;5094413;28;20584;-61
2021/04/06 02:53:57;;;;;;;5.30;3.85;;;;;;;;;;5094766;28;20200;-60
2021/04/06 02:56:30;;;;;;;4.60;3.65;;;;;;;;;;5094668;28;20201;-60
2021/04/06 02:59:12;;;;;;;6.30;4.25;;;;;;;;;;5094538;28;20230;-61
2021/04/06 03:01:39;;;;;;;4.47;4.00;;;;;;;;;;5094183;28;20224;-61
2021/04/06 03:04:16;;;;;;;4.18;3.67;;;;;;;;;;5094325;28;20202;-61
2021/04/06 03:06:44;;;;;;;6.35;4.28;;;;;;;;;;5094652;28;20211;-62
2021/04/06 03:09:12;;;;;;;4.50;3.60;;;;;;;;;;5094334;28;20251;-62
2021/04/06 03:11:42;;;;;;;4.32;3.70;;;;;;;;;;5094014;28;20611;-61
2021/04/06 03:14:09;;;;;;;8.05;4.50;;;;;;;;;;5094047;28;20676;-61
2021/04/06 03:16:37;;;;;;;4.20;3.80;;;;;;;;;;5094351;28;20604;-61
2021/04/06 03:19:04;;;;;;;5.65;3.92;;;;;;;;;;5094248;28;20242;-61
2021/04/06 03:21:32;;;;;;;7.60;3.55;;;;;;;;;;5093850;28;20373;-62
2021/04/06 03:24:00;;;;;;;4.25;3.30;;;;;;;;;;5094013;28;20234;-62
2021/04/06 03:26:28;;;;;;;4.85;3.50;;;;;;;;;;5094109;28;20253;-62
2021/04/06 03:28:57;;;;;;;6.93;4.60;;;;;;;;;;5093883;28;20645;-62
2021/04/06 03:31:26;;;;;;;6.40;3.60;;;;;;;;;;5093777;28;20294;-61
2021/04/06 03:33:53;;;;;;;6.07;4.18;;;;;;;;;;5094010;28;20207;-62
2021/04/06 03:36:21;;;;;;;5.97;3.53;;;;;;;;;;5093652;28;20220;-62
2021/04/06 03:38:49;;;;;;;7.05;4.15;;;;;;;;;;5093824;28;20203;-63
2021/04/06 03:41:18;;;;;;;6.00;4.28;;;;;;;;;;5093660;28;20200;-61
2021/04/06 03:43:45;;;;;;;6.93;3.85;;;;;;;;;;5093391;28;20287;-61
2021/04/06 03:46:12;;;;;;;4.78;3.30;;;;;;;;;;5093340;28;20261;-62
2021/04/06 03:48:39;;;;;;;5.13;3.13;;;;;;;;;;5093195;28;20212;-61
2021/04/06 03:51:23;;;;;;;6.20;4.00;;;;;;;;;;5093644;28;20200;-62
2021/04/06 03:53:51;;;;;;;6.00;4.60;;;;;;;;;;5093696;28;20238;-61
2021/04/06 03:56:18;;;;;;;4.45;3.75;;;;;;;;;;5093626;28;20635;-61
2021/04/06 03:58:52;;;;;;;4.10;3.13;;;;;;;;;;5093156;28;20201;-61
2021/04/06 04:01:19;;;;;;;7.47;3.80;;;;;;;;;;5093239;28;20181;-61
2021/04/06 04:03:46;;;;;;;5.93;3.80;;;;;;;;;;5094264;28;20281;-62
2021/04/06 04:07:56;;;;;;;4.47;3.05;;;;;;;;;;5111962;27;21122;-61
2021/04/06 04:10:23;;;;;;;5.30;3.25;;;;;;;;;;5111448;28;20204;-61
2021/04/06 04:12:50;;;;;;;4.20;3.47;;;;;;;;;;5110979;28;20201;-61
2021/04/06 04:15:17;;;;;;;4.38;3.30;;;;;;;;;;5111521;28;20230;-61
2021/04/06 04:17:46;;;;;;;9.32;3.38;;;;;;;;;;5111272;28;20198;-61
2021/04/06 04:20:14;;;;;;;6.65;3.72;;;;;;;;;;5111102;28;20251;-62
2021/04/06 04:22:40;;;;;;;4.80;3.33;;;;;;;;;;5110475;28;20670;-62
2021/04/06 04:25:09;;;;;;;7.25;3.60;;;;;;;;;;5110626;28;20715;-62
2021/04/06 04:27:36;;;;;;;5.47;3.53;;;;;;;;;;5110457;28;20225;-60
2021/04/06 04:30:03;;;;;;;4.88;3.40;;;;;;;;;;5110333;28;20203;-60
2021/04/06 04:32:29;;;;;;;3.55;3.00;;;;;;;;;;5111161;28;20199;-62
2021/04/06 04:34:56;;;;;;;6.15;3.13;;;;;;;;;;5112328;28;20270;-60
2021/04/06 04:37:23;;;;;;;9.32;3.55;;;;;;;;;;5111748;28;20202;-62
2021/04/06 04:39:50;;;;;;;6.65;3.55;;;;;;;;;;5111416;28;20204;-61
2021/04/06 04:42:19;;;;;;;5.57;4.20;;;;;;;;;;5110865;28;20614;-61
2021/04/06 04:44:45;;;;;;;6.70;3.75;;;;;;;;;;5110420;28;20227;-61
2021/04/06 04:47:12;;;;;;;7.82;3.90;;;;;;;;;;5110229;28;20216;-62
2021/04/06 04:49:39;;;;;;;7.80;3.72;;;;;;;;;;5110106;28;20210;-62
2021/04/06 04:52:06;;;;;;;3.88;3.28;;;;;;;;;;5110180;28;20205;-60
2021/04/06 04:54:33;;;;;;;6.38;3.60;;;;;;;;;;5110533;28;20217;-61
2021/04/06 04:57:00;;;;;;;6.82;3.78;;;;;;;;;;5110949;28;20203;-61
2021/04/06 04:59:27;;;;;;;4.53;4.05;;;;;;;;;;5110796;28;20572;-63
2021/04/06 05:01:54;;;;;;;5.35;3.35;;;;;;;;;;5111095;28;20197;-62
2021/04/06 05:04:21;;;;;;;5.93;2.90;;;;;;;;;;5110181;28;20225;-60
2021/04/06 05:06:47;;;;;;;5.45;3.85;;;;;;;;;;5110343;28;20229;-61
2021/04/06 05:09:14;;;;;;;6.30;2.97;;;;;;;;;;5110081;28;20205;-61
2021/04/06 05:11:41;;;;;;;5.57;3.17;;;;;;;;;;5109782;28;20555;-61
2021/04/06 05:14:08;;;;;;;3.53;2.80;;;;;;;;;;5109690;28;20205;-60
2021/04/06 05:16:35;;;;;;;4.38;2.85;;;;;;;;;;5109880;28;20194;-61
2021/04/06 05:19:02;;;;;;;5.85;3.00;;;;;;;;;;5097315;28;20206;-60
2021/04/06 05:21:29;;;;;;;9.10;3.30;;;;;;;;;;5096341;28;20228;-61
2021/04/06 05:23:55;;;;;;;8.65;3.33;;;;;;;;;;5096953;28;20271;-60
2021/04/06 05:26:22;;;;;;;6.95;3.13;;;;;;;;;;5096143;28;20757;-60
2021/04/06 05:28:49;;;;;;;4.15;3.00;;;;;;;;;;5096595;28;20203;-60
2021/04/06 05:31:16;;;;;;;4.75;2.70;;;;;;;;;;5096272;28;20203;-61
2021/04/06 05:33:43;;;;;;;4.55;2.80;;;;;;;;;;5096113;28;20229;-62
2021/04/06 05:36:10;;;;;;;8.77;3.55;;;;;;;;;;5095999;28;20268;-59
2021/04/06 05:38:37;;;;;;;6.10;2.75;;;;;;;;;;5095619;28;20666;-61
2021/04/06 05:41:04;;;;;;;6.55;2.90;;;;;;;;;;5095918;28;20206;-60
2021/04/06 05:43:32;;;;;;;4.40;1.95;;;;;;;;;;5095800;28;20211;-61
2021/04/06 05:45:59;;;;;;;4.70;2.75;;;;;;;;;;5096188;28;20275;-60
2021/04/06 05:48:26;;;;;;;3.90;2.67;;;;;;;;;;5098606;28;20203;-61
2021/04/06 05:50:54;;;;;;;2.83;2.53;;;;;;;;;;5095357;28;20204;-61
2021/04/06 05:53:21;;;;;;;4.75;2.30;;;;;;;;;;5095508;28;20205;-61
2021/04/06 05:55:48;;;;;;;2.65;2.10;;;;;;;;;;5095386;28;20220;-61
2021/04/06 05:58:15;;;;;;;2.45;2.03;;;;;;;;;;5095476;28;20204;-62
2021/04/06 06:00:42;;;;;;;9.13;2.67;;;;;;;;;;5095135;28;20207;-62
2021/04/06 06:03:09;;;;;;;2.17;1.83;;;;;;;;;;5095488;28;20199;-61
2021/04/06 06:05:36;;;;;;;5.90;2.70;;;;;;;;;;5094541;28;20219;-62
2021/04/06 06:08:08;;;;;;;4.30;2.70;;;;;;;;;;5095726;28;20291;-62
2021/04/06 06:10:35;;;;;;;2.35;2.15;;;;;;;;;;5095190;28;20181;-62
2021/04/06 06:13:15;;;;;;;4.45;2.08;;;;;;;;;;5094671;28;20581;-60
2021/04/06 06:15:42;;;;;;;4.82;2.35;;;;;;;;;;5095115;28;20293;-60
2021/04/06 06:18:09;;;;;;;4.95;2.20;;;;;;;;;;5094854;28;20230;-62
2021/04/06 06:20:36;;;;;;;5.03;1.80;;;;;;;;;;5095042;28;20204;-61
2021/04/06 06:23:20;;;;;;;6.18;2.83;;;;;;;;;;5095135;28;20203;-62
2021/04/06 06:26:10;;;;;;;2.65;2.05;;;;;;;;;;5095603;28;20228;-62
2021/04/06 06:28:37;;;;;;;3.47;2.15;;;;;;;;;;5079230;28;20212;-61
2021/04/06 06:31:04;;;;;;;3.53;2.30;;;;;;;;;;5093967;28;20694;-60
2021/04/06 06:33:33;;;;;;;9.57;2.30;;;;;;;;;;5094782;28;20200;-61
2021/04/06 06:36:01;;;;;;;4.30;2.30;;;;;;;;;;5095271;28;20220;-61
2021/04/06 06:38:33;;;;;;;3.72;2.13;;;;;;;;;;5095174;28;20281;-61
2021/04/06 06:41:10;;;;;;;3.00;2.05;;;;;;;;;;5094839;28;20196;-60
2021/04/06 06:43:37;;;;;;;4.30;2.13;;;;;;;;;;5095543;28;20184;-62
2021/04/06 06:46:04;;;;;;;4.38;2.58;;;;;;;;;;5095023;28;20231;-61
2021/04/06 06:48:31;;;;;;;2.72;1.92;;;;;;;;;;5094843;28;20204;-62
2021/04/06 06:50:59;;;;;;;3.08;2.00;;;;;;;;;;5094938;28;20202;-62
2021/04/06 06:53:35;;;;;;;2.75;2.17;;;;;;;;;;5094446;28;20672;-62
2021/04/06 06:56:02;;;;;;;7.25;2.70;;;;;;;;;;5094502;28;20220;-62
2021/04/06 06:58:32;;;;;;;5.50;2.47;;;;;;;;;;5094287;28;20612;-62
2021/04/06 07:00:59;;;;;;;8.93;2.50;;;;;;;;;;5095893;28;20212;-61
2021/04/06 07:03:26;;;;;;;4.00;2.08;;;;;;;;;;5096072;28;20212;-62
2021/04/06 07:05:52;;;;;;;1.90;1.35;;;;;;;;;;5094143;28;20244;-61
2021/04/06 07:08:30;;;;;;;3.30;1.83;;;;;;;;;;5094512;28;20193;-60
2021/04/06 07:10:59;;;;;;;7.43;3.28;;;;;;;;;;5094316;28;20651;-62
2021/04/06 07:13:28;;;;;;;10.73;2.33;;;;;;;;;;5094295;28;20222;-60
2021/04/06 07:15:56;;;;;;;5.38;2.92;;;;;;;;;;5094195;28;20306;-62
2021/04/06 07:18:24;;;;;;;3.58;1.80;;;;;;;;;;5094516;28;20226;-61
2021/04/06 07:20:52;;;;;;;6.65;2.80;;;;;;;;;;5094124;28;20196;-63
2021/04/06 07:23:25;;;;;;;6.70;2.60;;;;;;;;;;5093717;28;20208;-60
2021/04/06 07:25:51;;;;;;;5.53;1.90;;;;;;;;;;5094305;28;20220;-59
2021/04/06 07:28:19;;;;;;;4.68;2.17;;;;;;;;;;5094006;28;20197;-61
2021/04/06 07:30:46;;;;;;;5.30;2.15;;;;;;;;;;5093700;28;20204;-62
2021/04/06 07:33:15;;;;;;;8.40;2.67;;;;;;;;;;5094215;28;20582;-60
2021/04/06 07:35:42;;;;;;;3.65;2.00;;;;;;;;;;5093923;28;20221;-59
2021/04/06 07:38:09;;;;;;;7.32;2.60;;;;;;;;;;5093981;28;20207;-60
2021/04/06 07:40:36;;;;;;;6.45;2.20;;;;;;;;;;5093684;28;20248;-61
2021/04/06 07:43:05;;;;;;;7.25;2.50;;;;;;;;;;5093525;28;20233;-61
2021/04/06 07:45:40;;;;;;;10.00;3.00;;;;;;;;;;5094378;28;20248;-61
2021/04/06 07:48:08;;;;;;;4.05;2.25;;;;;;;;;;5095569;28;20273;-62
2021/04/06 07:50:36;;;;;;;8.25;2.58;;;;;;;;;;5102135;28;20201;-61
2021/04/06 07:53:21;;;;;;;6.33;3.00;;;;;;;;;;5093416;28;20447;-62
2021/04/06 07:55:48;;;;;;;9.30;3.58;;;;;;;;;;5093908;28;20477;-62
2021/04/06 07:58:30;;;;;;;11.55;3.80;;;;;;;;;;5093865;28;20204;-62
2021/04/06 08:01:06;;;;;;;6.88;3.15;;;;;;;;;;5093689;28;20204;-61
2021/04/06 08:03:48;;;;;;;6.18;2.78;;;;;;;;;;5093868;28;20210;-61
2021/04/06 08:06:24;;;;;;;8.27;3.05;;;;;;;;;;5093136;28;20227;-63
2021/04/06 08:08:51;;;;;;;8.85;3.25;;;;;;;;;;5094032;28;20191;-62
2021/04/06 08:11:18;;;;;;;10.05;3.00;;;;;;;;;;5093599;28;20229;-61
2021/04/06 08:13:45;;;;;;;6.97;2.70;;;;;;;;;;5093093;28;20203;-61
2021/04/06 08:16:13;;;;;;;9.95;4.95;;;;;;;;;;5093450;28;20220;-60
2021/04/06 08:18:49;;;;;;;6.57;2.55;;;;;;;;;;5093430;28;20197;-61
2021/04/06 08:21:17;;;;;;;5.35;2.70;;;;;;;;;;5093136;28;20200;-61
2021/04/06 08:23:45;;;;;;;3.75;2.60;;;;;;;;;;5093290;28;20202;-61
2021/04/06 08:26:25;;;;;;;7.32;2.95;;;;;;;;;;5093277;28;20240;-61
2021/04/06 08:28:52;;;;;;;5.57;2.20;;;;;;;;;;5093309;28;20182;-60
2021/04/06 08:31:35;;;;;;;12.00;2.80;;;;;;;;;;5092841;28;20209;-62
2021/04/06 08:34:20;;;;;;;5.80;2.70;;;;;;;;;;5092671;28;20698;-61
2021/04/06 08:37:05;;;;;;;7.68;2.78;;;;;;;;;;5092824;28;20193;-60
2021/04/06 08:39:34;;;;;;;8.15;2.65;;;;;;;;;;5092885;28;20181;-61
2021/04/06 08:42:01;;;;;;;3.58;2.47;;;;;;;;;;5093171;28;20196;-61
2021/04/06 08:44:28;;;;;;;6.55;3.75;;;;;;;;;;5093028;28;20634;-62
2021/04/06 08:46:57;;;;;;;9.93;3.33;;;;;;;;;;5093387;28;20243;-60
2021/04/06 08:49:25;;;;;;;4.75;2.70;;;;;;;;;;5092899;28;20209;-62
2021/04/06 08:51:53;;;;;;;11.18;2.35;;;;;;;;;;5093273;28;20624;-61
2021/04/06 08:54:21;;;;;;;3.88;1.85;;;;;;;;;;5096013;28;20277;-61
2021/04/06 08:56:48;;;;;;;9.85;3.05;;;;;;;;;;5097041;28;20196;-61
2021/04/06 08:59:16;;;;;;;4.85;2.30;;;;;;;;;;5096845;28;20196;-61
2021/04/06 09:01:43;;;;;;;11.60;2.55;;;;;;;;;;5097107;28;20203;-61
2021/04/06 09:04:15;;;;;;;6.03;2.45;;;;;;;;;;5096385;28;20249;-61
2021/04/06 09:06:42;;;;;;;5.47;2.53;;;;;;;;;;5096673;28;20233;-62
2021/04/06 09:09:09;;;;;;;10.38;3.17;;;;;;;;;;5096720;28;20298;-61
2021/04/06 09:11:36;;;;;;;4.88;1.70;;;;;;;;;;5097104;28;20285;-62
2021/04/06 09:14:03;;;;;;;8.45;2.60;;;;;;;;;;5096930;28;20211;-61
2021/04/06 09:16:31;;;;;;;4.75;1.95;;;;;;;;;;5097420;28;20251;-61
2021/04/06 09:18:58;;;;;;;4.40;2.10;;;;;;;;;;5098621;28;20203;-61
2021/04/06 09:21:29;;;;;;;8.52;2.20;;;;;;;;;;5097926;28;20443;-61
2021/04/06 09:23:56;;;;;;;6.47;2.40;;;;;;;;;;5098911;28;20261;-62
2021/04/06 09:26:23;;;;;;;6.20;2.13;;;;;;;;;;5098525;28;20217;-60
2021/04/06 09:28:59;;;;;;;5.50;2.13;;;;;;;;;;5097091;28;20209;-63
2021/04/06 09:31:26;;;;;;;9.00;2.90;;;;;;;;;;5096931;28;20189;-61
2021/04/06 09:33:53;;;;;;;15.50;2.70;;;;;;;;;;5096558;28;20202;-61
2021/04/06 09:36:20;;;;;;;7.35;2.47;;;;;;;;;;5095906;28;20217;-60
2021/04/06 09:38:48;;;;;;;8.20;3.22;;;;;;;;;;5096205;28;20347;-61
2021/04/06 09:41:14;;;;;;;8.43;2.30;;;;;;;;;;5095790;28;20207;-60
2021/04/06 09:43:41;;;;;;;7.82;2.60;;;;;;;;;;5104741;28;20203;-60
2021/04/06 09:46:08;;;;;;;10.93;2.38;;;;;;;;;;5099402;28;20223;-60
2021/04/06 09:48:35;;;;;;;9.05;2.28;;;;;;;;;;5096867;28;20254;-62
2021/04/06 09:51:04;;;;;;;5.57;2.30;;;;;;;;;;5097062;28;20256;-61
2021/04/06 09:53:31;;;;;;;4.90;2.25;;;;;;;;;;5095878;28;20823;-60
2021/04/06 09:55:59;;;;;;;7.22;2.28;;;;;;;;;;5096287;28;20222;-60
2021/04/06 09:58:28;;;;;;;8.85;2.38;;;;;;;;;;5095767;28;20241;-61
2021/04/06 10:00:54;;;;;;;3.40;2.08;;;;;;;;;;5095692;28;20210;-61
2021/04/06 10:03:24;;;;;;;8.30;2.70;;;;;;;;;;5095352;28;20209;-60
2021/04/06 10:06:02;;;;;;;5.03;2.20;;;;;;;;;;5095170;28;20727;-61
2021/04/06 10:08:29;;;;;;;8.35;2.60;;;;;;;;;;5095668;28;20206;-62
2021/04/06 10:10:56;;;;;;;6.63;2.70;;;;;;;;;;5095443;28;20258;-59
2021/04/06 10:13:24;;;;;;;8.10;2.85;;;;;;;;;;5095085;28;20683;-62
2021/04/06 10:16:03;;;;;;;6.63;3.17;;;;;;;;;;5095954;28;20225;-61
2021/04/06 10:18:37;;;;;;;8.27;2.95;;;;;;;;;;5095617;28;20189;-63
2021/04/06 10:21:04;;;;;;;5.03;1.67;;;;;;;;;;5095470;28;20195;-62
2021/04/06 10:23:32;;;;;;;10.32;3.10;;;;;;;;;;5095391;28;20691;-61
2021/04/06 10:25:58;;;;;;;4.63;2.40;;;;;;;;;;5095463;28;20226;-60
2021/04/06 10:28:27;;;;;;;6.10;2.17;;;;;;;;;;5101237;28;20224;-62
2021/04/06 10:30:58;;;;;;;11.60;2.20;;;;;;;;;;5095811;28;20210;-62
2021/04/06 10:33:27;;;;;;;6.85;2.60;;;;;;;;;;5095947;28;20580;-62
2021/04/06 10:35:55;;;;;;;4.50;2.00;;;;;;;;;;5096408;28;20272;-63
2021/04/06 10:38:23;;;;;;;4.95;2.08;;;;;;;;;;5095133;28;20568;-61
2021/04/06 10:40:59;;;;;;;3.67;2.22;;;;;;;;;;5096094;28;20260;-62
2021/04/06 10:43:27;;;;;;;4.70;1.77;;;;;;;;;;5095710;28;20680;-60
2021/04/06 10:45:59;;;;;;;6.82;2.60;;;;;;;;;;5097677;28;20224;-61
2021/04/06 10:48:28;;;;;;;4.32;2.10;;;;;;;;;;5096863;28;20215;-61
2021/04/06 10:50:56;;;;;;;12.02;2.20;;;;;;;;;;5095245;28;20693;-62
2021/04/06 10:53:27;;;;;;;7.97;2.60;;;;;;;;;;5096075;28;20209;-61
2021/04/06 10:55:55;;;;;;;4.30;2.00;;;;;;;;;;5097136;28;20223;-61
2021/04/06 10:58:27;;;;;;;7.68;2.60;;;;;;;;;;5095157;28;20207;-62
2021/04/06 11:01:03;;;;;;;5.20;2.28;;;;;;;;;;5095241;28;20519;-62
2021/04/06 11:03:36;;;;;;;7.30;2.22;;;;;;;;;;5098040;28;20204;-61
2021/04/06 11:06:08;;;;;;;3.15;1.55;;;;;;;;;;5105594;28;20239;-61
2021/04/06 11:08:40;;;;;;;4.95;2.22;;;;;;;;;;5106866;28;20196;-61
2021/04/06 11:11:15;;;;;;;3.47;1.75;;;;;;;;;;5106085;28;20188;-60
2021/04/06 11:13:42;;;;;;;4.50;1.63;;;;;;;;;;5105144;28;20184;-60
2021/04/06 11:16:09;;;;;;;4.15;1.90;;;;;;;;;;5104972;28;20234;-61
2021/04/06 11:18:37;;;;;;;3.20;1.55;;;;;;;;;;5104824;28;20200;-59
2021/04/06 11:21:04;;;;;;;3.97;1.50;;;;;;;;;;5104230;28;20211;-61
2021/04/06 11:23:31;;;;;;;4.40;1.80;;;;;;;;;;5100602;28;20208;-61
2021/04/06 11:25:57;;;;;;;6.07;1.85;;;;;;;;;;5101886;28;20227;-61
2021/04/06 11:28:24;;;;;;;3.25;2.05;;;;;;;;;;5102075;28;20219;-60
2021/04/06 11:30:52;;;;;;;3.25;1.60;;;;;;;;;;5100972;28;20226;-61
2021/04/06 11:33:19;;;;;;;4.65;1.75;;;;;;;;;;5100991;28;20200;-61
2021/04/06 11:35:46;;;;;;;8.32;2.17;;;;;;;;;;5101156;28;20231;-60
2021/04/06 11:38:13;;;;;;;2.30;1.75;;;;;;;;;;5097538;28;20196;-61
2021/04/06 11:40:39;;;;;;;3.85;1.63;;;;;;;;;;5095046;28;20750;-60
2021/04/06 11:43:06;;;;;;;4.07;2.35;;;;;;;;;;5101814;28;20200;-61
2021/04/06 11:45:33;;;;;;;4.82;2.00;;;;;;;;;;5103027;28;20250;-61
2021/04/06 11:48:00;;;;;;;2.42;1.60;;;;;;;;;;5099311;28;20265;-62
2021/04/06 11:50:27;;;;;;;4.57;2.45;;;;;;;;;;5095867;28;20273;-62
2021/04/06 11:52:54;;;;;;;4.13;2.00;;;;;;;;;;5097947;28;20204;-61
2021/04/06 11:55:21;;;;;;;4.18;1.92;;;;;;;;;;5095247;28;20223;-60
2021/04/06 11:57:47;;;;;;;4.65;1.63;;;;;;;;;;5095091;28;20195;-62
2021/04/06 12:00:15;;;;;;;4.93;1.52;;;;;;;;;;5094897;28;20211;-61
2021/04/06 12:02:42;;;;;;;3.17;2.17;;;;;;;;;;5096661;28;20223;-61
2021/04/06 12:05:11;;;;;;;1.58;1.40;;;;;;;;;;5094479;28;20220;-60
2021/04/06 12:07:38;;;;;;;4.35;1.35;;;;;;;;;;5093512;28;20224;-61
2021/04/06 12:10:05;;;;;;;2.72;1.85;;;;;;;;;;5093368;28;20207;-60
2021/04/06 12:12:32;;;;;;;3.85;1.65;;;;;;;;;;5093210;28;20199;-61
2021/04/06 12:14:59;;;;;;;3.70;1.77;;;;;;;;;;5093307;28;20220;-60
2021/04/06 12:17:26;;;;;;;4.03;2.25;;;;;;;;;;5093811;28;20265;-60
2021/04/06 12:19:52;;;;;;;7.20;1.83;;;;;;;;;;5092975;28;20207;-61
2021/04/06 12:22:20;;;;;;;3.22;2.10;;;;;;;;;;5093070;28;20373;-62
2021/04/06 12:24:47;;;;;;;3.17;1.70;;;;;;;;;;5093596;28;20220;-63
2021/04/06 12:27:14;;;;;;;2.38;1.42;;;;;;;;;;5094583;28;20225;-62
2021/04/06 12:29:40;;;;;;;3.22;1.38;;;;;;;;;;5096500;28;20432;-61
2021/04/06 12:32:07;;;;;;;2.95;1.60;;;;;;;;;;5097329;28;20610;-61
2021/04/06 12:34:34;;;;;;;6.40;1.88;;;;;;;;;;5097408;28;20271;-61
2021/04/06 12:37:01;;;;;;;3.28;1.67;;;;;;;;;;5097124;28;20197;-61
2021/04/06 12:39:28;;;;;;;4.35;1.45;;;;;;;;;;5097043;28;20226;-61
2021/04/06 12:41:55;;;;;;;4.63;1.85;;;;;;;;;;5096387;28;20757;-60
2021/04/06 12:44:22;;;;;;;3.08;1.58;;;;;;;;;;5097908;28;20227;-61
2021/04/06 12:46:49;;;;;;;5.32;2.20;;;;;;;;;;5097482;28;20270;-62
2021/04/06 12:49:16;;;;;;;4.68;1.80;;;;;;;;;;5097528;28;20615;-61
2021/04/06 12:51:42;;;;;;;5.25;2.75;;;;;;;;;;5097256;28;20621;-62
2021/04/06 12:54:10;;;;;;;5.50;1.60;;;;;;;;;;5097941;28;20200;-62
2021/04/06 12:56:38;;;;;;;5.97;1.70;;;;;;;;;;5097454;28;20205;-61
2021/04/06 12:59:05;;;;;;;4.47;2.25;;;;;;;;;;5097213;28;20201;-61
2021/04/06 13:01:31;;;;;;;5.55;2.00;;;;;;;;;;5097355;28;20204;-61
2021/04/06 13:03:58;;;;;;;6.75;2.65;;;;;;;;;;5096912;28;20619;-61
2021/04/06 13:06:25;;;;;;;5.60;1.92;;;;;;;;;;5097080;28;20916;-62
2021/04/06 13:08:51;;;;;;;3.58;2.10;;;;;;;;;;5097103;28;20215;-62
2021/04/06 13:11:18;;;;;;;4.55;2.50;;;;;;;;;;5098184;28;20201;-61
2021/04/06 13:13:46;;;;;;;3.40;1.58;;;;;;;;;;5097224;28;20204;-62
2021/04/06 13:16:13;;;;;;;4.72;2.45;;;;;;;;;;5097009;28;20225;-60
2021/04/06 13:18:40;;;;;;;3.47;1.58;;;;;;;;;;5096837;28;20562;-60
2021/04/06 13:21:07;;;;;;;4.10;1.88;;;;;;;;;;5096958;28;20260;-62
2021/04/06 13:23:33;;;;;;;5.53;2.00;;;;;;;;;;5096394;28;20672;-59
2021/04/06 13:26:01;;;;;;;2.60;1.65;;;;;;;;;;5097504;28;20247;-61
2021/04/06 13:28:30;;;;;;;5.57;1.80;;;;;;;;;;5096830;28;20229;-61
2021/04/06 13:30:57;;;;;;;4.45;1.60;;;;;;;;;;5097201;28;20209;-60
2021/04/06 13:33:24;;;;;;;5.65;2.00;;;;;;;;;;5097316;28;20210;-61
2021/04/06 13:35:51;;;;;;;3.90;1.60;;;;;;;;;;5097035;28;20222;-62
2021/04/06 13:38:18;;;;;;;3.70;1.80;;;;;;;;;;5096222;28;20197;-61
2021/04/06 13:40:44;;;;;;;5.20;2.20;;;;;;;;;;5096047;28;20200;-61
2021/04/06 13:43:12;;;;;;;3.25;1.20;;;;;;;;;;5101002;28;20210;-60
2021/04/06 13:45:38;;;;;;;1.90;1.50;;;;;;;;;;5110346;28;20238;-61
2021/04/06 13:48:07;;;;;;;1.20;0.90;;;;;;;;;;5103903;28;20221;-61
2021/04/06 13:50:35;;;;;;;3.90;2.17;;;;;;;;;;5097573;28;20210;-61
2021/04/06 13:53:02;;;;;;;2.55;0.98;;;;;;;;;;5096695;28;20663;-61
2021/04/06 13:55:30;;;;;;;2.58;0.95;;;;;;;;;;5096430;28;20218;-61
2021/04/06 13:57:57;;;;;;;2.17;0.80;;;;;;;;;;5096920;28;20200;-61
2021/04/06 14:00:25;;;;;;;0.82;0.77;;;;;;;;;;5095930;28;20677;-61
2021/04/06 14:02:52;;;;;;;1.90;1.02;;;;;;;;;;5096004;28;20551;-61
2021/04/06 14:05:20;;;;;;;2.42;1.08;;;;;;;;;;5095793;28;20221;-59
2021/04/06 14:07:47;;;;;;;2.10;1.30;;;;;;;;;;5096367;28;20220;-61
2021/04/06 14:10:15;;;;;;;4.18;1.45;;;;;;;;;;5095983;28;20250;-59
2021/04/06 14:12:41;;;;;;;2.25;0.98;;;;;;;;;;5095358;28;20237;-61
2021/04/06 14:15:09;;;;;;;5.07;1.10;;;;;;;;;;5096959;28;20220;-60
2021/04/06 14:17:36;;;;;;;2.80;1.10;;;;;;;;;;5097283;28;20220;-60
2021/04/06 14:20:04;;;;;;;3.53;1.05;;;;;;;;;;5098439;28;20221;-59
2021/04/06 14:22:32;;;;;;;2.33;1.88;;;;;;;;;;5097757;28;20673;-60
2021/04/06 14:24:59;;;;;;;5.10;1.80;;;;;;;;;;5097740;28;20281;-62
2021/04/06 14:27:25;;;;;;;2.42;1.08;;;;;;;;;;5096396;28;20216;-63
2021/04/06 14:29:52;;;;;;;3.00;1.55;;;;;;;;;;5095489;28;20573;-60
2021/04/06 14:32:19;;;;;;;2.08;1.33;;;;;;;;;;5094728;28;20589;-61
2021/04/06 14:34:46;;;;;;;2.40;1.23;;;;;;;;;;5095333;28;20577;-62
2021/04/06 14:37:13;;;;;;;6.45;1.55;;;;;;;;;;5094762;28;20201;-62
2021/04/06 14:39:41;;;;;;;4.47;1.50;;;;;;;;;;5094814;28;20211;-62
2021/04/06 14:42:08;;;;;;;2.60;1.70;;;;;;;;;;5094725;28;20198;-61
2021/04/06 14:44:35;;;;;;;2.28;1.55;;;;;;;;;;5095025;28;20228;-60
2021/04/06 14:47:02;;;;;;;3.67;1.25;;;;;;;;;;5094955;28;20219;-61
2021/04/06 14:49:29;;;;;;;3.20;1.30;;;;;;;;;;5095067;28;20197;-60
2021/04/06 14:51:55;;;;;;;2.50;1.55;;;;;;;;;;5093844;28;20233;-61